createdAt,value
2022-12-04T00:00:28.729Z,5.28
2022-12-04T00:02:55.775Z,5.28
2022-12-04T00:05:22.709Z,5.40
2022-12-04T00:07:49.639Z,5.53
2022-12-04T00:10:16.657Z,7.35
2022-12-04T00:12:43.473Z,5.68
2022-12-04T00:15:27.004Z,5.53
2022-12-04T00:17:54.575Z,6.67
2022-12-04T00:20:21.706Z,5.70
2022-12-04T00:22:48.536Z,5.43
2022-12-04T00:25:15.424Z,6.43
2022-12-04T00:27:42.255Z,5.68
2022-12-04T00:30:09.498Z,7.00
2022-12-04T00:32:36.446Z,7.68
2022-12-04T00:35:03.677Z,7.93
2022-12-04T00:37:30.723Z,7.80
2022-12-04T00:39:57.810Z,7.53
2022-12-04T00:42:24.727Z,8.33
2022-12-04T00:44:51.555Z,6.15
2022-12-04T00:47:18.567Z,6.15
2022-12-04T00:49:45.504Z,6.28
2022-12-04T00:52:12.538Z,8.07
2022-12-04T00:54:39.357Z,6.20
2022-12-04T00:57:06.174Z,6.75
2022-12-04T00:59:33.077Z,7.30
2022-12-04T01:01:59.940Z,8.27
2022-12-04T01:04:26.798Z,7.20
2022-12-04T01:06:53.695Z,7.67
2022-12-04T01:09:20.582Z,6.43
2022-12-04T01:11:47.599Z,6.38
2022-12-04T01:14:14.511Z,7.25
2022-12-04T01:16:41.512Z,5.97
2022-12-04T01:19:12.287Z,6.50
2022-12-04T01:21:39.966Z,6.72
2022-12-04T01:24:07.468Z,7.50
2022-12-04T01:26:34.327Z,6.25
2022-12-04T01:29:02.071Z,7.05
2022-12-04T01:31:28.912Z,7.20
2022-12-04T01:33:56.211Z,6.85
2022-12-04T01:36:26.777Z,6.38
2022-12-04T01:38:54.451Z,6.85
2022-12-04T01:41:26.192Z,7.60
2022-12-04T01:44:11.222Z,7.23
2022-12-04T01:46:39.007Z,8.05
2022-12-04T01:49:09.242Z,6.95
2022-12-04T01:51:41.164Z,6.88
2022-12-04T01:54:13.894Z,6.68
2022-12-04T01:56:55.248Z,8.70
2022-12-04T01:59:28.027Z,6.60
2022-12-04T02:02:03.910Z,6.10
2022-12-04T02:04:31.912Z,6.15
2022-12-04T02:06:58.744Z,6.95
2022-12-04T02:09:27.030Z,6.60
2022-12-04T02:12:06.363Z,6.03
2022-12-04T02:15:00.932Z,6.00
2022-12-04T02:17:41.973Z,6.63
2022-12-04T02:20:33.199Z,6.32
2022-12-04T02:23:18.784Z,6.20
2022-12-04T02:25:54.339Z,5.30
2022-12-04T02:28:21.135Z,5.85
2022-12-04T02:30:51.256Z,5.72
2022-12-04T02:33:25.846Z,5.35
2022-12-04T02:35:59.708Z,5.43
2022-12-04T02:38:35.858Z,5.75
2022-12-04T02:41:11.629Z,5.35
2022-12-04T02:43:43.796Z,5.75
2022-12-04T02:46:30.864Z,5.78
2022-12-04T02:49:02.215Z,5.43
2022-12-04T02:51:34.955Z,5.82
2022-12-04T02:54:09.128Z,5.43
2022-12-04T02:56:41.320Z,4.80
2022-12-04T02:59:13.698Z,5.82
2022-12-04T03:01:46.452Z,5.97
2022-12-04T03:04:16.170Z,6.18
2022-12-04T03:06:46.450Z,6.15
2022-12-04T03:09:30.118Z,5.88
2022-12-04T03:12:19.950Z,5.72
2022-12-04T03:14:55.314Z,5.53
2022-12-04T03:17:31.915Z,5.97
2022-12-04T03:20:03.787Z,5.47
2022-12-04T03:22:34.052Z,6.22
2022-12-04T03:25:03.573Z,6.85
2022-12-04T03:27:45.297Z,5.43
2022-12-04T03:30:17.338Z,5.45
2022-12-04T03:32:44.290Z,5.57
2022-12-04T03:35:21.821Z,5.85
2022-12-04T03:38:07.794Z,5.72
2022-12-04T03:40:44.391Z,5.77
2022-12-04T03:43:20.422Z,6.07
2022-12-04T03:45:55.595Z,5.45
2022-12-04T03:48:53.563Z,6.40
2022-12-04T03:51:52.356Z,7.22
2022-12-04T03:54:29.549Z,6.17
2022-12-04T03:57:02.385Z,6.18
2022-12-04T03:59:51.139Z,7.38
2022-12-04T04:02:26.358Z,6.13
2022-12-04T04:04:58.100Z,6.40
2022-12-04T04:07:35.302Z,6.47
2022-12-04T04:10:11.577Z,6.20
2022-12-04T04:12:47.930Z,7.05
2022-12-04T04:15:17.688Z,7.18
2022-12-04T04:17:45.927Z,7.22
2022-12-04T04:20:18.870Z,6.90
2022-12-04T04:22:54.586Z,6.60
2022-12-04T04:25:26.928Z,6.68
2022-12-04T04:27:56.538Z,7.25
2022-12-04T04:30:24.394Z,7.35
2022-12-04T04:33:17.760Z,8.30
2022-12-04T04:35:53.117Z,9.85
2022-12-04T04:38:35.243Z,18.17
2022-12-04T04:41:27.499Z,11.65
2022-12-04T04:44:06.295Z,8.18
2022-12-04T04:46:38.189Z,7.10
2022-12-04T04:49:09.228Z,7.88
2022-12-04T04:51:37.274Z,6.95
2022-12-04T04:54:11.357Z,7.25
2022-12-04T04:56:43.346Z,7.82
2022-12-04T04:59:11.075Z,6.87
2022-12-04T05:01:40.378Z,7.60
2022-12-04T05:04:08.243Z,7.30
2022-12-04T05:06:37.940Z,7.47
2022-12-04T05:09:05.092Z,7.28
2022-12-04T05:11:32.545Z,8.40
2022-12-04T05:13:59.423Z,7.35
2022-12-04T05:16:26.477Z,7.28
2022-12-04T05:18:53.255Z,8.05
2022-12-04T05:21:23.186Z,7.78
2022-12-04T05:23:53.673Z,8.00
2022-12-04T05:26:20.585Z,7.43
2022-12-04T05:28:47.307Z,7.88
2022-12-04T05:31:14.291Z,7.45
2022-12-04T05:33:44.326Z,7.88
2022-12-04T05:36:13.749Z,7.63
2022-12-04T05:38:40.901Z,7.40
2022-12-04T05:41:07.857Z,8.20
2022-12-04T05:43:35.887Z,7.55
2022-12-04T05:46:07.494Z,8.55
2022-12-04T05:48:35.805Z,8.97
2022-12-04T05:51:10.869Z,11.57
2022-12-04T05:53:38.305Z,9.52
2022-12-04T05:56:07.798Z,9.10
2022-12-04T05:58:36.841Z,8.85
2022-12-04T06:13:54.146Z,9.57
2022-12-04T06:16:27.978Z,8.60
2022-12-04T06:19:00.381Z,9.53
2022-12-04T06:21:31.049Z,9.60
2022-12-04T06:23:58.310Z,9.73
2022-12-04T06:26:26.144Z,10.80
2022-12-04T06:28:54.563Z,9.95
2022-12-04T06:31:21.537Z,8.60
2022-12-04T06:33:48.789Z,9.10
2022-12-04T06:36:18.611Z,8.52
2022-12-04T06:38:45.619Z,9.40
2022-12-04T06:41:14.288Z,11.00
2022-12-04T06:43:43.840Z,9.07
2022-12-04T06:46:13.558Z,9.13
2022-12-04T06:48:41.194Z,9.45
2022-12-04T06:51:11.257Z,8.90
2022-12-04T06:53:38.820Z,9.77
2022-12-04T06:56:08.661Z,10.23
2022-12-04T06:58:36.111Z,9.45
2022-12-04T07:01:15.364Z,12.90
2022-12-04T07:03:46.329Z,13.85
2022-12-04T07:06:29.895Z,10.20
2022-12-04T07:09:09.314Z,9.43
2022-12-04T07:11:38.623Z,9.52
2022-12-04T07:14:08.153Z,10.02
2022-12-04T07:16:40.315Z,12.50
2022-12-04T07:19:18.467Z,10.05
2022-12-04T07:21:45.242Z,12.33
2022-12-04T07:24:16.281Z,10.32
2022-12-04T07:26:43.281Z,12.82
2022-12-04T07:29:10.054Z,12.43
2022-12-04T07:31:36.875Z,15.73
2022-12-04T07:34:03.842Z,12.20
2022-12-04T07:36:30.837Z,13.23
2022-12-04T07:38:57.722Z,11.57
2022-12-04T07:41:24.641Z,13.50
2022-12-04T07:43:51.473Z,12.73
2022-12-04T07:46:21.553Z,12.27
2022-12-04T07:48:48.682Z,13.95
2022-12-04T07:51:18.730Z,12.98
2022-12-04T07:53:46.059Z,12.68
2022-12-04T07:56:13.824Z,12.75
2022-12-04T07:58:41.248Z,14.03
2022-12-04T08:01:13.941Z,11.75
2022-12-04T08:03:47.669Z,12.77
2022-12-04T08:06:20.350Z,12.60
2022-12-04T08:08:47.696Z,14.13
2022-12-04T08:11:18.742Z,27.13
2022-12-04T08:13:46.297Z,14.70
2022-12-04T08:16:13.891Z,12.35
2022-12-04T08:18:41.677Z,14.18
2022-12-04T08:21:13.848Z,12.98
2022-12-04T08:23:42.974Z,16.07
2022-12-04T08:26:11.226Z,16.63
2022-12-04T08:28:38.884Z,15.27
2022-12-04T08:31:14.162Z,14.48
2022-12-04T08:33:42.558Z,19.65
2022-12-04T08:36:12.075Z,15.87
2022-12-04T08:38:39.195Z,16.17
2022-12-04T08:41:08.169Z,28.58
2022-12-04T08:43:35.083Z,20.95
2022-12-04T08:46:04.715Z,18.92
2022-12-04T08:48:32.279Z,16.97
2022-12-04T08:50:59.336Z,14.32
2022-12-04T08:53:26.244Z,17.52
2022-12-04T08:55:53.588Z,19.40
2022-12-04T08:58:20.870Z,21.75
2022-12-04T09:00:47.771Z,21.00
2022-12-04T09:03:19.733Z,20.85
2022-12-04T09:05:47.298Z,19.10
2022-12-04T09:08:16.890Z,22.98
2022-12-04T09:10:44.220Z,18.33
2022-12-04T09:13:10.996Z,29.03
2022-12-04T09:15:41.510Z,18.92
2022-12-04T09:18:09.475Z,17.63
2022-12-04T09:20:36.771Z,18.52
2022-12-04T09:23:05.428Z,16.63
2022-12-04T09:25:35.938Z,18.70
2022-12-04T09:28:02.775Z,20.08
2022-12-04T09:30:29.568Z,16.80
2022-12-04T09:32:56.585Z,19.05
2022-12-04T09:35:24.040Z,20.48
2022-12-04T09:37:50.892Z,25.40
2022-12-04T09:40:37.745Z,18.27
2022-12-04T09:43:18.265Z,19.40
2022-12-04T09:45:53.672Z,20.42
2022-12-04T09:48:22.593Z,16.52
2022-12-04T09:50:50.700Z,15.13
2022-12-04T09:53:23.532Z,14.10
2022-12-04T09:56:04.555Z,13.50
2022-12-04T09:58:53.996Z,14.35
2022-12-04T10:01:42.114Z,15.45
2022-12-04T10:04:11.901Z,14.63
2022-12-04T10:06:49.993Z,15.25
2022-12-04T10:09:22.784Z,13.27
2022-12-04T10:12:04.774Z,18.35
2022-12-04T10:14:48.521Z,15.02
2022-12-04T10:17:36.632Z,13.83
2022-12-04T10:20:31.372Z,15.57
2022-12-04T10:23:17.430Z,13.73
2022-12-04T10:25:44.277Z,16.23
2022-12-04T10:28:16.766Z,12.45
2022-12-04T10:30:45.802Z,16.20
2022-12-04T10:33:22.108Z,15.25
2022-12-04T10:35:51.784Z,13.60
2022-12-04T10:38:55.833Z,14.30
2022-12-04T10:41:47.853Z,12.98
2022-12-04T10:44:17.183Z,13.73
2022-12-04T10:46:46.188Z,15.80
2022-12-04T10:49:32.072Z,13.20
2022-12-04T10:52:02.036Z,15.32
2022-12-04T10:54:39.868Z,14.57
2022-12-04T10:57:14.648Z,13.40
2022-12-04T10:59:56.268Z,14.15
2022-12-04T11:02:32.464Z,13.15
2022-12-04T11:05:01.814Z,15.48
2022-12-04T11:07:32.391Z,15.25
2022-12-04T11:10:04.362Z,19.40
2022-12-04T11:12:32.309Z,36.92
2022-12-04T11:15:08.719Z,25.67
2022-12-04T11:17:38.028Z,15.73
2022-12-04T11:20:32.901Z,12.60
2022-12-04T11:23:00.251Z,40.40
2022-12-04T11:25:30.922Z,14.07
2022-12-04T11:28:01.330Z,12.70
2022-12-04T11:30:41.572Z,18.52
2022-12-04T11:33:19.131Z,24.33
2022-12-04T11:35:54.285Z,16.63
2022-12-04T11:38:26.595Z,16.48
2022-12-04T11:40:57.004Z,14.25
2022-12-04T11:43:29.617Z,15.65
2022-12-04T11:46:06.259Z,17.60
2022-12-04T11:48:44.057Z,15.90
2022-12-04T11:51:43.079Z,15.63
2022-12-04T11:54:34.606Z,13.95
2022-12-04T11:57:21.766Z,13.20
2022-12-04T12:00:10.755Z,20.50
2022-12-04T12:03:05.315Z,23.70
2022-12-04T12:06:01.268Z,18.55
2022-12-04T12:08:33.653Z,15.73
2022-12-04T12:11:31.434Z,24.10
2022-12-04T12:14:01.113Z,14.02
2022-12-04T12:16:40.163Z,17.27
2022-12-04T12:19:44.241Z,13.55
2022-12-04T12:22:28.896Z,20.88
2022-12-04T12:25:11.073Z,19.92
2022-12-04T12:28:10.135Z,16.10
2022-12-04T12:31:06.219Z,22.80
2022-12-04T12:33:39.696Z,93.78
2022-12-04T12:36:10.636Z,86.38
2022-12-04T12:39:18.280Z,48.42
2022-12-04T12:41:55.791Z,52.75
2022-12-04T12:44:52.880Z,19.70
2022-12-04T12:47:23.626Z,15.35
2022-12-04T12:49:55.597Z,26.77
2022-12-04T12:53:02.172Z,22.77
2022-12-04T12:55:44.836Z,17.02
2022-12-04T12:58:14.393Z,22.53
2022-12-04T13:00:51.413Z,46.00
2022-12-04T13:03:41.187Z,17.25
2022-12-04T13:06:14.715Z,44.72
2022-12-04T13:08:49.542Z,20.38
2022-12-04T13:11:22.974Z,13.70
2022-12-04T13:13:56.626Z,15.02
2022-12-04T13:16:35.295Z,23.33
2022-12-04T13:19:20.130Z,12.90
2022-12-04T13:22:17.996Z,18.25
2022-12-04T13:25:18.547Z,15.87
2022-12-04T13:28:16.603Z,11.88
2022-12-04T13:31:00.941Z,12.48
2022-12-04T13:33:43.039Z,15.40
2022-12-04T13:36:38.668Z,12.15
2022-12-04T13:39:08.503Z,13.23
2022-12-04T13:41:38.597Z,12.13
2022-12-04T13:44:19.975Z,11.00
2022-12-04T13:46:55.832Z,11.07
2022-12-04T13:49:26.485Z,12.90
2022-12-04T13:51:54.859Z,17.17
2022-12-04T13:54:33.794Z,13.77
2022-12-04T13:57:15.713Z,14.07
2022-12-04T13:59:42.856Z,15.48
2022-12-04T14:02:35.717Z,13.60
2022-12-04T14:05:10.184Z,14.07
2022-12-04T14:07:39.668Z,15.27
2022-12-04T14:10:15.732Z,16.27
2022-12-04T14:12:51.947Z,13.98
2022-12-04T14:15:24.658Z,15.10
2022-12-04T14:18:02.316Z,13.20
2022-12-04T14:20:31.796Z,13.25
2022-12-04T14:23:26.214Z,12.70
2022-12-04T14:25:55.009Z,14.13
2022-12-04T14:28:24.235Z,15.02
2022-12-04T14:31:31.614Z,14.47
2022-12-04T14:34:05.824Z,14.25
2022-12-04T14:36:44.209Z,21.92
2022-12-04T14:39:32.319Z,17.17
2022-12-04T14:42:26.049Z,13.55
2022-12-04T14:44:59.306Z,13.67
2022-12-04T14:48:04.593Z,14.25
2022-12-04T14:50:43.530Z,18.33
2022-12-04T14:53:27.133Z,23.05
2022-12-04T14:56:13.965Z,13.57
2022-12-04T14:58:40.931Z,16.23
2022-12-04T15:01:28.647Z,23.88
2022-12-04T15:04:01.549Z,16.88
2022-12-04T15:06:33.356Z,17.75
2022-12-04T15:09:03.568Z,16.85
2022-12-04T15:11:31.360Z,17.40
2022-12-04T15:14:14.086Z,18.77
2022-12-04T15:16:41.163Z,15.80
2022-12-04T15:19:18.346Z,15.75
2022-12-04T15:21:45.545Z,20.83
2022-12-04T15:24:19.446Z,15.23
2022-12-04T15:26:48.554Z,17.92
2022-12-04T15:29:23.135Z,17.05
2022-12-04T15:31:55.309Z,17.30
2022-12-04T15:34:25.977Z,17.80
2022-12-04T15:37:02.855Z,17.73
2022-12-04T15:39:33.061Z,19.48
2022-12-04T15:42:18.040Z,17.02
2022-12-04T15:44:54.520Z,16.75
2022-12-04T15:47:27.557Z,16.48
2022-12-04T15:49:54.785Z,18.33
2022-12-04T15:52:24.240Z,16.70
2022-12-04T15:55:06.675Z,17.38
2022-12-04T15:57:36.655Z,14.98
2022-12-04T16:00:06.819Z,13.43
2022-12-04T16:02:36.797Z,20.13
2022-12-04T16:05:37.022Z,22.55
2022-12-04T16:08:29.047Z,27.75
2022-12-04T16:11:20.931Z,22.10
2022-12-04T16:13:50.621Z,17.48
2022-12-04T16:16:21.800Z,17.83
2022-12-04T16:18:49.059Z,20.05
2022-12-04T16:21:18.739Z,18.85
2022-12-04T16:23:46.287Z,21.75
2022-12-04T16:26:17.972Z,19.33
2022-12-04T16:28:45.089Z,23.40
2022-12-04T16:31:13.542Z,20.95
2022-12-04T16:33:40.986Z,20.23
2022-12-04T16:36:11.064Z,22.40
2022-12-04T16:38:38.084Z,20.40
2022-12-04T16:41:06.131Z,20.13
2022-12-04T16:43:33.252Z,18.75
2022-12-04T16:46:01.591Z,16.40
2022-12-04T16:48:28.899Z,18.58
2022-12-04T16:50:55.993Z,19.25
2022-12-04T16:53:23.016Z,19.03
2022-12-04T16:55:51.847Z,18.63
2022-12-04T16:58:20.117Z,19.10
2022-12-04T17:00:53.940Z,17.50
2022-12-04T17:03:27.270Z,16.60
2022-12-04T17:05:54.335Z,14.83
2022-12-04T17:08:21.922Z,17.35
2022-12-04T17:10:48.805Z,17.08
2022-12-04T17:13:18.546Z,17.20
2022-12-04T17:15:45.502Z,17.15
2022-12-04T17:18:17.675Z,19.70
2022-12-04T17:20:47.360Z,18.00
2022-12-04T17:23:19.881Z,17.77
2022-12-04T17:25:46.877Z,17.85
2022-12-04T17:28:14.074Z,18.42
2022-12-04T17:30:45.040Z,19.90
2022-12-04T17:33:11.868Z,21.42
2022-12-04T17:35:42.429Z,22.73
2022-12-04T17:38:09.424Z,20.45
2022-12-04T17:40:36.350Z,20.20
2022-12-04T17:43:03.299Z,19.93
2022-12-04T17:45:30.356Z,19.70
2022-12-04T17:47:57.180Z,20.50
2022-12-04T17:50:23.951Z,19.13
2022-12-04T17:52:50.798Z,20.25
2022-12-04T17:55:17.691Z,22.10
2022-12-04T17:57:44.694Z,22.08
2022-12-04T18:00:12.017Z,21.17
2022-12-04T18:02:39.006Z,21.15
2022-12-04T18:05:06.014Z,19.42
2022-12-04T18:07:32.939Z,20.47
2022-12-04T18:10:00.264Z,19.08
2022-12-04T18:12:27.464Z,18.33
2022-12-04T18:14:54.266Z,18.52
2022-12-04T18:17:21.029Z,18.55
2022-12-04T18:19:47.782Z,18.70
2022-12-04T18:22:14.726Z,18.55
2022-12-04T18:24:41.487Z,16.35
2022-12-04T18:27:08.455Z,15.98
2022-12-04T18:29:35.294Z,16.58
2022-12-04T18:32:02.341Z,17.40
2022-12-04T18:34:29.365Z,21.45
2022-12-04T18:36:56.210Z,15.05
2022-12-04T18:39:24.667Z,17.73
2022-12-04T18:41:54.173Z,17.55
2022-12-04T18:44:21.017Z,16.93
2022-12-04T18:46:48.041Z,16.23
2022-12-04T18:49:15.048Z,18.50
2022-12-04T18:51:48.586Z,18.17
2022-12-04T18:54:21.553Z,15.35
2022-12-04T18:56:48.768Z,13.03
2022-12-04T18:59:19.585Z,17.58
2022-12-04T19:01:47.205Z,18.40
2022-12-04T19:04:14.712Z,17.70
2022-12-04T19:06:44.377Z,16.80
2022-12-04T19:09:14.780Z,17.80
2022-12-04T19:11:42.138Z,18.33
2022-12-04T19:14:19.255Z,18.92
2022-12-04T19:16:49.976Z,22.67
2022-12-04T19:19:17.168Z,20.13
2022-12-04T19:21:44.295Z,20.70
2022-12-04T19:24:11.677Z,19.00
2022-12-04T19:26:39.242Z,15.93
2022-12-04T19:29:07.665Z,17.08
2022-12-04T19:31:36.732Z,16.02
2022-12-04T19:34:05.295Z,19.67
2022-12-04T19:36:33.380Z,21.35
2022-12-04T19:39:01.394Z,23.13
2022-12-04T19:41:30.399Z,22.27
2022-12-04T19:43:59.360Z,18.73
2022-12-04T19:46:31.355Z,20.27
2022-12-04T19:49:00.816Z,21.98
2022-12-04T19:51:28.779Z,18.83
2022-12-04T19:53:55.870Z,15.95
2022-12-04T19:56:26.099Z,15.68
2022-12-04T19:58:54.225Z,12.43
2022-12-04T20:01:23.455Z,10.50
2022-12-04T20:03:50.260Z,13.20
2022-12-04T20:06:19.492Z,14.32
2022-12-04T20:08:47.458Z,11.40
2022-12-04T20:11:18.918Z,13.23
2022-12-04T20:13:47.394Z,14.13
2022-12-04T20:16:18.098Z,13.55
2022-12-04T20:18:45.308Z,12.98
2022-12-04T20:21:12.916Z,14.13
2022-12-04T20:23:48.092Z,15.40
2022-12-04T20:26:27.410Z,12.38
2022-12-04T20:28:56.331Z,14.38
2022-12-04T20:31:25.849Z,15.13
2022-12-04T20:33:54.670Z,14.40
2022-12-04T20:36:23.083Z,14.47
2022-12-04T20:38:52.311Z,14.23
2022-12-04T20:41:19.173Z,16.85
2022-12-04T20:43:47.781Z,13.88
2022-12-04T20:46:34.965Z,14.00
2022-12-04T20:49:04.404Z,16.97
2022-12-04T20:51:34.297Z,16.77
2022-12-04T20:54:01.777Z,22.73
2022-12-04T20:56:32.552Z,25.27
2022-12-04T20:59:01.463Z,27.92
2022-12-04T21:01:28.990Z,26.47
2022-12-04T21:03:55.978Z,25.33
2022-12-04T21:06:31.014Z,22.10
2022-12-04T21:09:01.074Z,38.35
2022-12-04T21:11:34.234Z,23.50
2022-12-04T21:14:07.625Z,29.13
2022-12-04T21:16:34.980Z,31.63
2022-12-04T21:19:03.854Z,29.35
2022-12-04T21:21:31.044Z,27.15
2022-12-04T21:23:57.863Z,31.27
2022-12-04T21:26:24.705Z,33.17
2022-12-04T21:28:51.443Z,26.40
2022-12-04T21:31:18.169Z,25.65
2022-12-04T21:33:45.211Z,22.90
2022-12-04T21:36:12.141Z,29.98
2022-12-04T21:38:40.218Z,25.73
2022-12-04T21:41:09.307Z,27.17
2022-12-04T21:43:37.037Z,24.48
2022-12-04T21:46:09.424Z,26.52
2022-12-04T21:48:36.972Z,24.58
2022-12-04T21:51:21.232Z,22.17
2022-12-04T21:53:55.177Z,20.17
2022-12-04T21:56:22.974Z,21.70
2022-12-04T21:58:50.237Z,24.35
2022-12-04T22:01:18.523Z,20.83
2022-12-04T22:03:45.587Z,31.43
2022-12-04T22:06:12.930Z,26.42
2022-12-04T22:08:41.778Z,28.15
2022-12-04T22:11:11.397Z,27.08
2022-12-04T22:13:39.166Z,28.25
2022-12-04T22:16:08.787Z,24.23
2022-12-04T22:18:36.003Z,25.13
2022-12-04T22:21:09.369Z,22.58
2022-12-04T22:23:37.043Z,22.58
2022-12-04T22:26:12.633Z,23.05
2022-12-04T22:28:40.093Z,21.20
2022-12-04T22:31:10.025Z,20.17
2022-12-04T22:33:37.527Z,18.65
2022-12-04T22:36:07.302Z,17.38
2022-12-04T22:38:42.474Z,18.30
2022-12-04T22:41:21.162Z,16.07
2022-12-04T22:43:47.989Z,14.32
2022-12-04T22:46:16.081Z,14.43
2022-12-04T22:48:43.422Z,19.02
2022-12-04T22:51:13.841Z,15.60
2022-12-04T22:53:42.945Z,16.20
2022-12-04T22:56:15.926Z,16.50
2022-12-04T22:58:43.159Z,16.58
2022-12-04T23:01:17.959Z,17.30
2022-12-04T23:03:45.773Z,16.98
2022-12-04T23:06:13.620Z,18.83
2022-12-04T23:08:41.833Z,16.83
2022-12-04T23:11:13.861Z,21.88
2022-12-04T23:13:41.852Z,22.02
2022-12-04T23:16:11.560Z,15.00
2022-12-04T23:18:40.021Z,20.03
2022-12-04T23:21:09.819Z,26.52
2022-12-04T23:23:38.471Z,31.67
2022-12-04T23:26:07.096Z,24.50
2022-12-04T23:28:34.067Z,25.70
2022-12-04T23:31:01.876Z,28.13
2022-12-04T23:33:29.141Z,26.58
2022-12-04T23:35:58.074Z,28.20
2022-12-04T23:38:26.273Z,25.77
2022-12-04T23:41:22.087Z,30.60
2022-12-04T23:43:49.817Z,31.90
2022-12-04T23:46:19.578Z,26.33
2022-12-04T23:48:47.597Z,29.15
2022-12-04T23:51:16.738Z,25.80
2022-12-04T23:53:43.646Z,29.90
2022-12-04T23:56:36.501Z,30.70
2022-12-04T23:59:03.311Z,29.70
